x

9440910 - Toke Point, Wa (tokw1) Weather Station

8:18 - Mon 29th Dec 2014 All times are PST. -8 hours from GMT.

  • Wind
    11mph, 14mph gusts
  • Ar Temp 39°f
  • Sea Pressure 1026.4mb
  • 9440910 - Toke Point, Wa
  • 9440910 - Toke Point, Wa

More Historic Weather Station data

Upgrade to MSW Pro to gain access to the past 30 days of data for over 8000 Wavebouys and Weather Stations around the globe.

Join Pro

Comparision Forecast

View Surf forecast
   
Seg 12/29 8:18 11 14 mph 1026.4mb 39f
8:12 10 13 mph 1026.3mb 39f
8:06 10 13 mph 1026.1mb 39f
8:00 10 13 mph 1026mb 39f
7:54 11 13 mph 1025.9mb 39f
7:48 10 13 mph 1025.9mb 39f
7:42 11 14 mph 1025.9mb 39f
7:36 11 14 mph 1025.8mb 39f
7:30 13 14 mph 1025.6mb 39f
7:24 13 14 mph 1025.6mb 39f
7:18 13 14 mph 1025.5mb 39f
7:12 11 14 mph 1025.4mb 39f
7:06 13 14 mph 1025.4mb 38f
7:00 13 15 mph 1025.3mb 39f
6:54 14 16 mph 1025.2mb 39f
6:48 11 15 mph 1025.1mb 39f
6:42 13 14 mph 1024.9mb 39f
6:36 13 15 mph 1024.8mb 39f
6:30 10 14 mph 1024.7mb 39f
6:24 13 16 mph 1024.6mb 40f
6:18 14 16 mph 1024.5mb 40f
6:12 14 16 mph 1024.4mb 39f
6:06 13 15 mph 1024.2mb 39f
6:00 11 15 mph 1024.2mb 39f
5:54 11 14 mph 1024.1mb 39f
5:48 11 14 mph 1024mb 39f
5:42 10 11 mph 1024mb 39f
5:36 10 13 mph 1023.9mb 39f
5:30 10 15 mph 1023.8mb 39f
5:24 11 14 mph 1023.7mb 39f
5:18 13 14 mph 1023.6mb 39f
5:12 10 13 mph 1023.4mb 39f
5:06 10 15 mph 1023.4mb 39f
5:00 14 15 mph 1023.4mb 39f
4:54 13 14 mph 1023.3mb 39f
4:48 10 13 mph 1023.2mb 39f
4:42 10 13 mph 1023.2mb 39f
4:36 10 14 mph 1023.1mb 39f
4:30 10 13 mph 1023mb 39f
4:24 13 16 mph 1023mb 40f
4:18 15 16 mph 1022.9mb 40f
4:12 14 16 mph 1022.8mb 40f
4:06 14 16 mph 1022.7mb 40f
3:54 11 14 mph 1022.5mb 40f
3:48 11 14 mph 1022.5mb 40f
3:42 13 15 mph 1022.5mb 39f
3:36 13 15 mph 1022.5mb 39f
3:30 13 14 mph 1022.5mb 39f
3:24 9 11 mph 1022.5mb 39f
3:18 10 11 mph 1022.5mb 39f
3:12 10 13 mph 1022.4mb 39f
3:06 10 14 mph 1022.3mb 39f
3:00 13 16 mph 1022.2mb 39f
2:54 16 17 mph 1022.2mb 39f
2:48 16 17 mph 1022mb 39f
2:42 16 18 mph 1022.1mb 39f
2:36 17 20 mph 1022mb 39f
2:30 16 18 mph 1022mb 39f
2:24 16 18 mph 1021.9mb 39f
2:18 14 17 mph 1021.8mb 39f
2:12 15 17 mph 1021.7mb 39f
2:06 14 16 mph 1021.6mb 39f
2:00 14 16 mph 1021.5mb 39f
1:54 16 18 mph 1021.5mb 39f
1:48 14 16 mph 1021.4mb 39f
1:42 14 16 mph 1021.4mb 39f
1:36 14 15 mph 1021.2mb 39f
1:30 13 15 mph 1021.1mb 39f
1:24 13 15 mph 1021.1mb 39f
1:18 13 14 mph 1021.1mb 39f
1:12 11 14 mph 1020.9mb 39f
1:06 11 15 mph 1021mb 39f
1:00 11 14 mph 1020.9mb 40f
12:54 7 11 mph 1020.9mb 40f
12:48 7 8 mph 1020.8mb 40f
12:42 6 14 mph 1020.6mb 40f
12:36 10 13 mph 1020.5mb 39f
12:30 2 5 mph 1020.4mb 41f
12:24 3 5 mph 1020.4mb 40f
12:18 3 5 mph 1020.3mb 41f
12:00 5 6 mph 1020.4mb 41f
Dom 12/28 11:54 3 5 mph 1020.3mb 41f
11:48 3
mph
1020.2mb 42f
11:42 3 5 mph 1020.3mb 42f
11:36 3 7 mph 1020.2mb 43f
11:30 7 14 mph 1020.3mb 43f
11:24 6 8 mph 1020.3mb 44f
11:18 3 5 mph 1020.2mb 44f
11:12 3 7 mph 1020.2mb 44f
11:06 6 10 mph 1020.3mb 43f
11:00 9 15 mph 1020.4mb 42f
10:54 10 15 mph 1020.6mb 42f
10:48 9 13 mph 1020.6mb 42f
10:42 3 5 mph 1020.6mb 43f
10:36 2 5 mph 1020.5mb 43f
10:30 3 5 mph 1020.5mb 42f
10:24 2 3 mph 1020.6mb 42f
10:18 1 7 mph 1020.7mb 42f
10:12 7 10 mph 1020.7mb 42f
10:06 9 15 mph 1020.8mb 44f
10:00 2 8 mph 1020.4mb 44f
9:54 8 10 mph 1020.4mb 44f
9:48 9 16 mph 1020.6mb 44f
9:42 10 14 mph 1020.7mb 44f
9:36 13 15 mph 1020.8mb 44f
9:30 13 17 mph 1020.8mb 45f
9:24 6 9 mph 1020.5mb 46f
9:18 8 10 mph 1020.5mb 46f
9:12 7 8 mph 1020.6mb 45f
9:06 7 10 mph 1020.6mb 45f
9:00 6 8 mph 1020.6mb 45f
8:54 7 8 mph 1020.6mb 46f
8:48  -  mph - 45f
8:42  -  mph - 46f
8:36  -  mph - 45f
8:30 10 13 mph 1021mb 46f
8:24 10 14 mph 1021mb 46f
8:18 13 17 mph 1021mb 46f
8:12 14 17 mph 1021mb 45f
8:06 13 16 mph 1021mb 45f
8:00 10 14 mph 1021.1mb 45f
7:54 11 16 mph 1021.2mb 45f
7:48 14 18 mph 1021.3mb 45f
7:42 24 36 mph 1021.3mb 45f
7:36 18 25 mph 1021.2mb 46f
7:30 16 18 mph 1021.1mb 47f
7:24 15 22 mph 1021.1mb 47f
7:18 17 21 mph 1021.1mb 46f
7:12 11 15 mph 1021.3mb 46f
7:06 13 15 mph 1021.3mb 46f
7:00 14 15 mph 1021.3mb 46f
6:54 11 17 mph 1021.3mb 45f
6:48 10 20 mph 1021.6mb 45f
6:42 16 26 mph 1021.7mb 44f
6:36 23 30 mph 1021.6mb 46f
6:30 24 29 mph 1021.3mb 47f
6:24 16 22 mph 1021.3mb 47f
6:18 13 18 mph 1021.4mb 47f
6:12 16 21 mph 1021.4mb 47f
6:06 18 21 mph 1021.3mb 47f
6:00 14 18 mph 1021.3mb 47f
5:54 13 20 mph 1021.4mb 47f
5:48 16 22 mph 1021.4mb 47f
5:42 14 26 mph 1021.5mb 47f
5:36 9 13 mph 1021.9mb 46f
5:30 7 15 mph 1021.7mb 46f
5:24 13 15 mph 1021.6mb 47f
5:18 5 6 mph 1021.6mb 46f
5:12 5 6 mph 1021.7mb 47f
5:06 5 6 mph 1021.7mb 47f
5:00 5 6 mph 1021.7mb 47f
4:54 6 7 mph 1021.8mb 47f
4:48 5 7 mph 1021.8mb 47f
4:42 7 9 mph 1021.8mb 47f
4:36 8 9 mph 1021.9mb 47f
4:30 8 10 mph 1022mb 47f
4:24 10 13 mph 1022mb 47f
4:18 9 11 mph 1021.9mb 47f
4:12 9 11 mph 1021.9mb 47f
4:06 11 15 mph 1021.9mb 47f
4:00 10 13 mph 1021.9mb 47f
3:54 11 16 mph 1022mb 48f
3:48 14 17 mph 1022mb 48f
3:42 15 17 mph 1022.1mb 48f
3:36 13 16 mph 1022mb 49f
3:30 10 16 mph 1022.1mb 49f
3:24 11 17 mph 1022.1mb 49f
3:18 14 17 mph 1022.1mb 49f
3:12 16 18 mph 1022.2mb 49f
3:06 11 15 mph 1022.3mb 49f
3:00 11 14 mph 1022.3mb 49f
2:54 11 16 mph 1022.3mb 48f
2:48 11 14 mph 1022.3mb 48f
2:42 14 20 mph 1022.3mb 48f
2:36 17 21 mph 1022.2mb 48f
2:30 9 13 mph 1022.3mb 48f
2:24 8 10 mph 1022.3mb 47f
2:18 8 11 mph 1022.3mb 47f
2:12 10 13 mph 1022.3mb 47f
2:06 9 14 mph 1022.3mb 47f
2:00 7 10 mph 1022.5mb 47f
1:54 10 17 mph 1022.4mb 47f
1:48 10 21 mph 1022.5mb 47f
1:42 14 15 mph 1022.5mb 48f
1:36 7 17 mph 1022.4mb 47f
1:30 16 18 mph 1022.6mb 47f
1:24 15 17 mph 1022.5mb 48f
1:18 10 15 mph 1022.6mb 48f
1:12 13 18 mph 1022.6mb 48f
1:06 14 16 mph 1022.7mb 48f
1:00 16 20 mph 1022.7mb 48f
12:54 8 11 mph 1022.7mb 48f
12:48 9 13 mph 1022.7mb 48f
12:42 8 13 mph 1022.8mb 48f
12:36 3 9 mph 1022.9mb 48f
12:30 2 3 mph 1023mb 47f
12:24 3
mph
1023mb 47f
12:18 5 6 mph 1023mb 47f
12:12 3
mph
1023.1mb 47f
12:06 3 5 mph 1023.1mb 47f
12:00 5 6 mph 1023.1mb 47f
11:54 5
mph
1023.2mb 47f
11:48 3 5 mph 1023.2mb 47f
11:42 3 7 mph 1023.3mb 47f
11:36 7
mph
1023.4mb 46f
11:30 6 7 mph 1023.5mb 47f
11:24 6 8 mph 1023.6mb 46f
11:18 6 7 mph 1023.6mb 47f
11:12 5 6 mph 1023.6mb 46f
11:06 5 10 mph 1023.6mb 46f
11:00 6 7 mph 1023.8mb 46f
10:54 1 6 mph 1023.8mb 46f
10:48 1 3 mph 1023.9mb 46f
10:42 2 3 mph 1023.9mb 46f
10:36 2 5 mph 1024mb 47f
10:30 3 5 mph 1023.9mb 46f
10:24 2 6 mph 1023.9mb 46f
10:18 7 9 mph 1024mb 46f
10:12 7 9 mph 1023.9mb 47f
10:06 5 6 mph 1023.9mb 46f
10:00 6
mph
1024mb 46f
9:54 6 7 mph 1024mb 47f
9:48 6 8 mph 1023.8mb 47f
9:42 8 10 mph 1023.8mb 47f
9:36 10 14 mph 1023.7mb 47f
9:30 11 17 mph 1023.6mb 47f
9:24 15 20 mph 1023.5mb 47f
9:18 13 16 mph 1023.4mb 47f
9:12 7 9 mph 1023.4mb 46f
9:06 7 9 mph 1023.3mb 46f
9:00 8 11 mph 1023.4mb 45f
8:54 8 13 mph 1023.4mb 46f
8:48 9 15 mph 1023.4mb 46f
8:42 15 29 mph 1023.4mb 46f
8:36 15 22 mph 1023.5mb 47f
8:30 10 16 mph 1023.3mb 47f
8:24 11 18 mph 1023.3mb 48f
8:18 10 14 mph 1023.2mb 48f
8:06 13 14 mph 1022.9mb 48f
8:00 13 17 mph 1022.9mb 48f
7:54 15 21 mph 1022.9mb 48f
7:48 10 16 mph 1022.9mb 48f
7:42 11 16 mph 1023mb 48f
7:36 10 14 mph 1023mb 48f
7:30 13 17 mph 1022.9mb 48f
7:24 15 20 mph 1022.9mb 48f
7:18 14 17 mph 1023mb 48f
7:12 14 18 mph 1022.8mb 48f
7:06 11 17 mph 1022.8mb 48f
7:00 11 18 mph 1022.8mb 49f
6:54 14 18 mph 1022.9mb 49f
6:48 13 18 mph 1022.8mb 49f
6:42 17 23 mph 1022.8mb 49f
6:30 11 17 mph 1022.7mb 48f
6:24 14 22 mph 1022.8mb 49f
6:18 16 21 mph 1022.8mb 49f
6:12 20 26 mph 1022.8mb 48f
6:06 21 29 mph 1022.7mb 49f
6:00 18 26 mph 1022.7mb 49f
5:54 16 21 mph 1022.7mb 49f
5:48 17 23 mph 1022.7mb 49f
5:42 15 23 mph 1022.7mb 49f
5:36 18 23 mph 1022.6mb 49f
5:30 17 25 mph 1022.6mb 49f
5:24 20 23 mph 1022.4mb 49f
5:18 18 22 mph 1022.4mb 49f
5:12 16 22 mph 1022.3mb 49f
5:06 16 20 mph 1022.3mb 49f
5:00 18 22 mph 1022.3mb 49f
4:54 16 22 mph 1022.3mb 48f
4:48 18 23 mph 1022.3mb 48f
4:42 18 28 mph 1022.3mb 48f
4:36 25 30 mph 1022.2mb 49f
4:30 18 23 mph 1022.3mb 49f
4:24 17 26 mph 1022.3mb 48f
4:18 21 25 mph 1022.2mb 49f
4:12 18 24 mph 1022.3mb 49f
4:06 16 22 mph 1022.3mb 49f
4:00 14 20 mph 1022.3mb 49f
3:54 17 21 mph 1022.3mb 49f
3:48 18 22 mph 1022.3mb 49f
3:42 14 22 mph 1022.3mb 48f
3:36 20 24 mph 1022.2mb 48f
3:30 17 23 mph 1022.1mb 48f
3:24 17 22 mph 1022.1mb 48f
3:18 15 24 mph 1022.1mb 48f
3:12 20 30 mph 1022mb 47f
3:06 22 32 mph 1022mb 49f
3:00 16 23 mph 1022mb 49f
2:54 18 22 mph 1022mb 49f
2:48 21 24 mph 1022mb 49f
2:42 22 26 mph 1021.9mb 49f
2:36 17 23 mph 1022mb 48f
2:30 22 26 mph 1021.9mb 48f
2:24 16 21 mph 1021.9mb 48f
2:18 18 24 mph 1021.8mb 48f
2:12 17 23 mph 1021.7mb 48f
2:06 18 22 mph 1021.7mb 48f
2:00 18 23 mph 1021.6mb 48f
1:54 21 29 mph 1021.5mb 48f
1:48 24 30 mph 1021.4mb 49f
1:42 21 30 mph 1021.4mb 48f
1:36 16 23 mph 1021.4mb 48f
1:30 22 26 mph 1021.3mb 48f
1:24 23 26 mph 1021.2mb 49f
1:18 21 28 mph 1021.2mb 48f
1:06 21 29 mph 1021.2mb 48f
1:00 22 30 mph 1021.1mb 49f
12:54 22 28 mph 1021.1mb 48f
12:48 22 30 mph 1021mb 49f
12:42 17 22 mph 1021.1mb 49f
12:36 20 24 mph 1021mb 49f
12:30 18 24 mph 1021.1mb 48f
12:24 21 25 mph 1021mb 49f
12:18 18 33 mph 1021mb 48f
12:12 20 28 mph 1020.9mb 48f
12:06 22 29 mph 1020.9mb 49f
12:00 24 26 mph 1020.8mb 49f
Sáb 12/27 11:54 21 28 mph 1020.9mb 48f
11:48 23 28 mph 1020.8mb 49f
11:42 20 25 mph 1020.9mb 48f
11:36 17 21 mph 1021mb 48f
11:30 20 24 mph 1021mb 49f
11:24 22 29 mph 1021mb 49f
11:18 20 24 mph 1021.1mb 48f
11:12 22 24 mph 1021.1mb 48f
11:06 18 22 mph 1021.2mb 48f
11:00 16 21 mph 1021.2mb 48f
10:54 18 23 mph 1021.2mb 48f
10:48 20 26 mph 1021.1mb 48f
10:42 21 26 mph 1021mb 48f
10:36 17 24 mph 1021mb 48f
10:30 17 24 mph 1021mb 48f
10:24 16 21 mph 1021mb 47f
10:18 16 21 mph 1020.9mb 47f
10:12 17 24 mph 1021mb 47f
10:06 22 32 mph 1021mb 46f
10:00 22 28 mph 1020.9mb 48f
9:54 20 24 mph 1020.7mb 49f
9:48 20 29 mph 1020.7mb 49f
9:42 22 25 mph 1020.7mb 49f
9:36 20 25 mph 1020.8mb 49f
9:30 16 22 mph 1020.8mb 49f
9:24 20 26 mph 1020.7mb 49f
9:18 21 24 mph 1020.7mb 49f
9:12 16 20 mph 1020.6mb 48f
9:06 16 18 mph 1020.7mb 48f
9:00 17 32 mph 1020.8mb 47f
8:54 21 26 mph 1020.7mb 49f
8:48  -  mph - 49f
8:42  -  mph - 49f
8:36  -  mph - 49f
8:30 21 24 mph 1020.6mb 49f
8:24 20 24 mph 1020.6mb 49f
8:18 18 24 mph 1020.5mb 48f
8:12 18 24 mph 1020.5mb 48f
8:06 21 23 mph 1020.6mb 49f
8:00 16 21 mph 1020.5mb 49f
7:54 11 16 mph 1020.6mb 47f
7:48 14 16 mph 1020.6mb 47f
7:42 14 20 mph 1020.7mb 47f
7:36 17 23 mph 1020.7mb 47f
7:30 21 24 mph 1020.8mb 47f
7:24 17 21 mph 1020.7mb 49f
7:18 16 22 mph 1020.7mb 49f
7:12 16 22 mph 1020.6mb 49f
7:06 20 24 mph 1020.8mb 49f
6:54 18 22 mph 1020.7mb 49f
6:48 14 20 mph 1020.8mb 49f
6:42 16 25 mph 1020.8mb 49f
6:36 20 26 mph 1020.9mb 49f
6:30 18 21 mph 1021mb 49f
6:24 14 20 mph 1021.1mb 48f
6:18 15 22 mph 1021.1mb 48f
6:12 17 24 mph 1021.1mb 49f
6:06 17 22 mph 1021.1mb 49f
6:00 13 16 mph 1021.3mb 48f
5:54 11 16 mph 1021.3mb 47f
5:48 14 17 mph 1021.4mb 47f
5:42 14 16 mph 1021.4mb 48f
5:36 15 21 mph 1021.3mb 48f
5:30 18 25 mph 1021.4mb 48f
5:24 22 28 mph 1021.3mb 49f
5:18 17 20 mph 1021.2mb 49f
5:12 11 14 mph 1021.2mb 49f
5:00 17 23 mph 1021.3mb 49f
4:54 15 23 mph 1021.3mb 49f
4:48 14 16 mph 1021.4mb 49f
4:42 11 15 mph 1021.3mb 48f
4:36 11 14 mph 1021.4mb 48f
4:30 14 16 mph 1021.4mb 48f
4:24 15 17 mph 1021.5mb 48f
4:18 14 17 mph 1021.5mb 48f
4:12 15 20 mph 1021.5mb 48f
4:06 20 22 mph 1021.5mb 49f
4:00 17 22 mph 1021.4mb 48f
3:54 17 24 mph 1021.4mb 49f
3:48 20 26 mph 1021.3mb 49f
3:42 21 26 mph 1021.2mb 49f
3:36 21 25 mph 1021.1mb 49f
3:30 16 23 mph 1021.1mb 49f
3:24 17 24 mph 1021mb 49f
3:18 16 20 mph 1021mb 49f
3:12 17 22 mph 1021mb 49f
3:06 16 23 mph 1020.9mb 49f
3:00 16 22 mph 1020.8mb 48f
2:54 17 25 mph 1020.7mb 48f
2:48 23 28 mph 1020.9mb 48f
2:42 20 25 mph 1020.7mb 48f
2:36 17 21 mph 1020.6mb 48f
2:30 13 17 mph 1020.6mb 48f
2:24 15 17 mph 1020.7mb 48f
2:18 16 21 mph 1020.7mb 47f
2:06 30 37 mph 1020.7mb 48f
1:54 17 26 mph 1020.4mb 50f
1:48 20 26 mph 1020.4mb 49f
1:42 22 31 mph 1020.4mb 49f
1:36 17 24 mph 1020.5mb 49f
1:30 11 22 mph 1020.5mb 50f
1:24 15 22 mph 1020.5mb 51f
1:18 13 21 mph 1020.7mb 51f
1:12 15 22 mph 1020.8mb 51f
1:06 16 21 mph 1020.9mb 51f
1:00 16 21 mph 1021mb 51f
12:54 11 20 mph 1021.1mb 51f
12:48 16 20 mph 1021.1mb 51f
12:42 14 20 mph 1021.2mb 51f
12:36 14 17 mph 1021.4mb 51f
12:30 14 20 mph 1021.5mb 50f
12:24 10 15 mph 1021.5mb 50f
12:18 11 16 mph 1021.6mb 50f
12:12 13 17 mph 1021.7mb 50f
12:06 10 14 mph 1021.7mb 50f
12:00 11 16 mph 1021.8mb 50f
11:54 9 15 mph 1021.9mb 49f
11:48 11 18 mph 1022mb 49f
11:42 14 23 mph 1022.2mb 49f
11:36 15 21 mph 1022.3mb 49f
11:30 14 22 mph 1022.4mb 49f
11:24 14 20 mph 1022.4mb 49f
11:18 16 22 mph 1022.5mb 49f
11:12 14 20 mph 1022.5mb 49f
11:06 13 17 mph 1022.7mb 49f
11:00 14 18 mph 1022.8mb 48f
10:54 13 18 mph 1022.8mb 48f
10:48 15 20 mph 1022.9mb 48f
10:42 13 16 mph 1022.9mb 49f
10:36 14 21 mph 1022.9mb 49f
10:30 14 20 mph 1022.9mb 49f
10:24 13 18 mph 1022.9mb 49f
10:18 13 21 mph 1023mb 50f
10:12 15 21 mph 1022.9mb 50f
10:06 14 21 mph 1022.8mb 50f
10:00 15 22 mph 1022.8mb 49f
9:54 16 21 mph 1022.8mb 49f
9:48 17 22 mph 1022.8mb 49f
9:42 13 18 mph 1022.7mb 49f
9:36 17 21 mph 1022.7mb 49f
9:30 13 21 mph 1022.6mb 50f
9:24 11 20 mph 1022.7mb 49f
9:18 14 20 mph 1022.7mb 49f
9:12 14 18 mph 1022.7mb 49f
9:06 14 18 mph 1022.6mb 50f
9:00 11 15 mph 1022.6mb 50f
8:54 13 17 mph 1022.6mb 50f
8:48 14 20 mph 1022.6mb 50f
8:42 13 16 mph 1022.4mb 50f
8:36 15 20 mph 1022.4mb 50f
8:30 11 18 mph 1022.3mb 50f
8:24 13 16 mph 1022.3mb 50f
8:18 10 17 mph 1022.3mb 51f
8:12 11 15 mph 1022.3mb 51f
8:06 10 14 mph 1022.2mb 51f
8:00 11 16 mph 1022.3mb 51f
7:54 13 17 mph 1022.3mb 51f
7:48 14 18 mph 1022.4mb 51f
7:42 11 20 mph 1022.4mb 50f
7:36 14 17 mph 1022.5mb 50f
7:30 13 16 mph 1022.4mb 51f
7:24 9 13 mph 1022.5mb 50f
7:18 10 13 mph 1022.5mb 50f
7:12 10 14 mph 1022.5mb 50f
7:06 13 16 mph 1022.5mb 49f
7:00 13 17 mph 1022.5mb 50f
6:54 13 16 mph 1022.5mb 50f
6:48 6 11 mph 1022.5mb 50f
6:42 5 8 mph 1022.6mb 51f
6:36 3 8 mph 1022.6mb 51f
6:30 3 11 mph 1022.7mb 51f
6:24 2 10 mph 1022.7mb 50f
6:18 5 10 mph 1022.8mb 51f
6:12 3 13 mph 1022.8mb 50f
6:06 7 11 mph 1022.9mb 50f
6:00 2 8 mph 1022.9mb 50f
5:54 3 10 mph 1022.9mb 50f
5:48 2 6 mph 1022.9mb 50f
5:42 1 9 mph 1022.9mb 50f
5:36 3 8 mph 1023mb 50f
5:30 6 13 mph 1023.2mb 50f
5:24 8 14 mph 1023.2mb 50f
5:18 13 16 mph 1023.3mb 49f
5:12 14 17 mph 1023.4mb 49f
5:06 14 17 mph 1023.4mb 49f
5:00 13 16 mph 1023.5mb 49f
4:54 13 18 mph 1023.6mb 49f
4:48 14 17 mph 1023.7mb 49f
4:42 14 15 mph 1023.8mb 49f
4:36 11 15 mph 1023.9mb 49f
4:30 14 16 mph 1024mb 48f
4:24 11 15 mph 1024.1mb 48f
4:18 13 16 mph 1024.2mb 48f
4:12 13 16 mph 1024.3mb 47f
4:06 13 16 mph 1024.4mb 47f
4:00 14 16 mph 1024.5mb 47f
3:54 14 16 mph 1024.6mb 47f
3:48 15 16 mph 1024.7mb 47f
3:42 14 16 mph 1024.8mb 47f
3:36 11 15 mph 1024.8mb 47f
3:30 14 16 mph 1024.9mb 47f
3:24 14 16 mph 1025mb 47f
3:18 14 16 mph 1025mb 47f
3:12 14 15 mph 1025.1mb 47f
3:06 15 16 mph 1025.1mb 47f
3:00 14 16 mph 1025.2mb 47f
2:54 14 16 mph 1025.2mb 47f
2:48 14 16 mph 1025.2mb 47f
2:42 14 16 mph 1025.2mb 47f
2:36 13 15 mph 1025.3mb 47f
2:30 13 15 mph 1025.4mb 47f
2:24 11 14 mph 1025.5mb 47f
2:18 9 10 mph 1025.5mb 48f
2:12 9 10 mph 1025.6mb 48f
2:06 9 10 mph 1025.5mb 47f
2:00 8 11 mph 1025.5mb 48f
1:54 9 11 mph 1025.5mb 47f
1:48 9 13 mph 1025.5mb 47f
1:42 9 10 mph 1025.4mb 47f
1:36 10 11 mph 1025.3mb 47f
1:30 11 14 mph 1025.3mb 47f
1:24 10 13 mph 1025.3mb 47f
1:18 10 13 mph 1025.3mb 47f
1:12 11 13 mph 1025.4mb 47f
1:06 10 14 mph 1025.5mb 47f
1:00 10 13 mph 1025.6mb 47f
12:54 10 13 mph 1025.7mb 47f
12:48 10 13 mph 1025.8mb 47f
12:42 11 14 mph 1025.8mb 47f
12:36 10 14 mph 1025.8mb 47f
12:30 10 13 mph 1025.9mb 47f
12:24 10 13 mph 1026mb 47f
12:18 10 13 mph 1026.1mb 47f
12:12 9 10 mph 1026.2mb 47f
12:06 9 11 mph 1026.2mb 47f
12:00 9 11 mph 1026.2mb 47f
Sex 12/26 11:54 9 11 mph 1026.4mb 47f
11:48 9 10 mph 1026.4mb 47f
11:42 8 10 mph 1026.5mb 47f
11:36 10 11 mph 1026.5mb 47f
11:30 8 10 mph 1026.6mb 47f
11:24 8 10 mph 1026.7mb 47f
11:18 8 9 mph 1026.8mb 47f
11:12 9 10 mph 1026.8mb 47f
11:06 7 9 mph 1026.8mb 47f
11:00 7 8 mph 1026.8mb 47f
10:54 3 5 mph 1026.8mb 47f
10:48 2 3 mph 1026.9mb 47f
10:42 2 5 mph 1026.9mb 46f
10:36 2 5 mph 1026.9mb 46f
10:30 3 5 mph 1026.9mb 46f
10:24 5 6 mph 1027mb 46f
10:18 5 6 mph 1027mb 46f
10:12 5 6 mph 1027mb 46f
10:06 6 7 mph 1027.1mb 46f
10:00 6 8 mph 1027.2mb 46f
9:54 7 8 mph 1027.1mb 46f
9:48 6 8 mph 1027.1mb 46f
9:42 7 8 mph 1027mb 46f
9:36 8 9 mph 1027.1mb 46f
9:30 7 9 mph 1027.1mb 46f
9:24 8 9 mph 1027.1mb 46f
9:18 7 8 mph 1027.1mb 46f
9:12 7 8 mph 1027.1mb 46f
9:06 6 7 mph 1027.2mb 46f
9:00 6
mph
1027.3mb 46f
8:54 6 7 mph 1027.3mb 46f
8:48 6 7 mph 1027.2mb 46f
8:42 6 7 mph 1027.2mb 46f
8:36 6 7 mph 1027.1mb 46f
8:30 6 7 mph 1027.2mb 46f
8:24 7
mph
1027.1mb 46f
8:18 7 8 mph 1027.1mb 46f
8:12 7 8 mph 1027.1mb 46f
8:06 7 9 mph 1027mb 46f
8:00 8 9 mph 1027.1mb 46f
7:54 8 10 mph 1027.1mb 46f
7:48 8 9 mph 1027.1mb 46f
7:42 9 10 mph 1027.1mb 46f
7:36 9 11 mph 1027mb 46f
7:30 10 11 mph 1027mb 47f
7:24 10 11 mph 1027mb 47f
7:18 11 13 mph 1027mb 47f
7:12 9 10 mph 1027mb 47f
7:06 8 9 mph 1027mb 47f
7:00 9 10 mph 1027.1mb 47f
6:54 9 10 mph 1027.1mb 47f
6:48 9 10 mph 1027.1mb 47f
6:42 9 10 mph 1026.9mb 47f
6:36 8 9 mph 1027mb 47f
6:30 9 11 mph 1027mb 47f
6:24 9 11 mph 1027.1mb 47f
6:18 9 10 mph 1027mb 47f
6:12 9 10 mph 1027.1mb 47f
6:06 9
mph
1027.1mb 47f
6:00 8 9 mph 1027.2mb 47f
5:54 7 8 mph 1027.3mb 47f
5:48 8
mph
- 47f
5:42 7 8 mph - 47f
5:36 6 7 mph - 47f
5:30 7
mph
1027.4mb 47f
5:24 7
mph
1027.3mb 47f
5:18 6 7 mph 1027.3mb 47f
5:12 7
mph
1027.2mb 47f
5:06 6 7 mph 1027.2mb 47f
5:00 7
mph
1027.2mb 47f
4:54 7
mph
1027.1mb 47f
4:48 6 7 mph 1027.1mb 47f
4:42 6 7 mph 1027.2mb 47f
4:36 6 7 mph 1027.2mb 47f
4:24 6 7 mph 1027.1mb 47f
4:18 6 8 mph 1027.1mb 47f
4:12 7 8 mph 1027.1mb 47f
4:06 7 8 mph 1027mb 47f
4:00 7 8 mph 1027mb 47f
3:54 7 8 mph 1026.9mb 47f
3:48 7 8 mph 1027mb 47f
3:42 6 7 mph 1027mb 47f
3:36 6 7 mph 1027.1mb 47f
3:30 6
mph
1027mb 47f
3:24 5 6 mph 1026.9mb 47f
3:18 6
mph
1026.9mb 47f
3:12 6 7 mph 1026.8mb 47f
3:06 6
mph
1026.9mb 47f
3:00 6 7 mph 1026.9mb 47f
2:54 6 7 mph 1026.8mb 47f
2:48 6 7 mph 1026.7mb 47f
2:42 6 7 mph 1026.7mb 47f
2:36 6 8 mph 1026.7mb 47f
2:30 6 7 mph 1026.6mb 47f
2:24 6 8 mph 1026.6mb 47f
2:18 7 8 mph 1026.6mb 46f
2:12 7 8 mph 1026.7mb 46f
2:06 7 8 mph 1026.7mb 46f
2:00 7
mph
1026.7mb 46f
1:54 6 7 mph 1026.8mb 46f
1:48 6 7 mph 1026.9mb 46f
1:42 6 7 mph 1026.8mb 46f
1:36 6
mph
1026.9mb 46f
1:30 6
mph
1027mb 46f
1:24 5 6 mph 1027mb 46f
1:18 6 7 mph 1026.9mb 46f
1:12 6 7 mph 1027mb 46f
1:00 7 8 mph 1027.1mb 45f
12:54 8 10 mph 1027mb 45f
12:48  -  mph 1027mb 45f
12:42  -  mph 1027.1mb 45f
12:36  -  mph 1027.2mb 45f
12:30 7 9 mph 1027.3mb 45f
12:24 8 9 mph 1027.4mb 45f
12:18 7 8 mph 1027.5mb 45f
12:06 7 9 mph 1027.6mb 45f
12:00 7 9 mph 1027.7mb 45f
11:54 6 8 mph 1027.7mb 45f
11:48 7 8 mph 1027.8mb 44f
11:42 7 9 mph 1027.8mb 45f
11:36 9 11 mph 1027.7mb 44f
11:30 9 11 mph 1027.7mb 44f
11:24 9 11 mph 1027.8mb 44f
11:18 9 11 mph 1027.8mb 44f
11:12 8 11 mph 1027.9mb 44f
11:06 9 10 mph 1028mb 44f
11:00 8 11 mph 1028mb 44f
10:54 8 9 mph 1028mb 44f
10:48 8 10 mph 1028.1mb 44f
10:42 8 10 mph 1028.2mb 44f
10:36 9 11 mph 1028.1mb 44f
10:30 10 13 mph 1028.1mb 44f
10:24 13 14 mph 1028mb 44f
10:18 13 15 mph 1028mb 44f
10:12 14
mph
1028mb 44f
10:06 11 14 mph 1028.1mb 44f
10:00 11 13 mph 1028.1mb 44f
9:54 10 13 mph 1028mb 44f
9:48 11 13 mph 1027.8mb 44f
9:42 11 14 mph 1027.8mb 43f
9:36 11 13 mph 1027.8mb 44f
9:30 10 13 mph 1027.7mb 44f
9:24 11
mph
1027.7mb 44f
9:18 11 13 mph 1027.7mb 44f
9:12 10 11 mph 1027.6mb 44f
9:06 10 11 mph 1027.6mb 44f
9:00 9 11 mph 1027.6mb 44f
8:54 10 11 mph 1027.6mb 44f
8:48 10 13 mph 1027.5mb 44f
8:42 10 13 mph 1027.4mb 44f
8:36 11 13 mph 1027.3mb 44f
8:30 13 14 mph 1027.2mb 44f
8:24 10 13 mph 1027.3mb 44f
8:18 9 10 mph 1027.3mb 44f
8:12 10 11 mph 1027.3mb 44f
8:06 10 11 mph 1027.2mb 44f
8:00 9 11 mph 1027.1mb 44f
7:54 10 11 mph 1027.1mb 44f
7:48 10 11 mph 1027mb 44f
7:42 10 11 mph 1027mb 44f
7:36 10 11 mph 1026.9mb 44f
7:30 10 13 mph 1026.9mb 44f
7:24 11 13 mph 1026.8mb 44f
7:18 11 13 mph 1026.8mb 43f
7:12 10 13 mph 1026.8mb 44f
7:06 9 11 mph 1026.8mb 44f
7:00 10 11 mph 1026.8mb 44f
6:54 9 10 mph 1026.8mb 44f
6:48 9 10 mph 1026.8mb 44f
6:42 8 9 mph 1026.8mb 44f
6:36 8 9 mph 1026.8mb 44f
6:30 8 9 mph 1026.8mb 44f
6:24 8 10 mph 1026.9mb 44f
6:18 9
mph
1026.9mb 44f
6:12 8 10 mph 1026.8mb 44f
6:06 10
mph
1026.8mb 44f
6:00 9 11 mph 1026.7mb 44f
5:54 10 11 mph 1026.7mb 44f
5:48 9 10 mph 1026.7mb 44f
5:42 9 10 mph 1026.7mb 44f
5:36 9 10 mph 1026.6mb 44f
5:30 8 10 mph 1026.6mb 44f
5:24 10 11 mph 1026.6mb 44f
5:18 10 13 mph 1026.5mb 44f
5:12 10 13 mph 1026.5mb 44f
5:06 11 13 mph 1026.5mb 44f
4:54 9 10 mph 1026.4mb 44f
4:48 8 10 mph 1026.5mb 44f
4:42 9 10 mph 1026.4mb 44f
4:36 9 11 mph 1026.5mb 44f
4:30 9 11 mph 1026.5mb 44f
4:24 9 11 mph 1026.5mb 44f
4:18 13 14 mph 1026.5mb 44f
4:12 11 13 mph 1026.5mb 44f
4:06 9 11 mph 1026.5mb 44f
4:00 9 11 mph 1026.5mb 44f
3:54 9 11 mph 1026.5mb 45f
3:48 10 11 mph 1026.5mb 45f
3:42 10 13 mph 1026.5mb 45f
3:36 10 11 mph 1026.5mb 45f
3:30 9 11 mph 1026.5mb 44f
3:24 10 11 mph 1026.6mb 44f
3:18 10 11 mph 1026.5mb 44f
3:12 10 11 mph 1026.4mb 44f
3:06 10 11 mph 1026.4mb 44f
3:00 9 10 mph 1026.4mb 44f
2:54 8 10 mph 1026.4mb 44f
2:48 9 11 mph 1026.4mb 44f
2:42 10 11 mph 1026.3mb 44f
2:36 10 11 mph 1026.2mb 43f
2:30 10 11 mph 1026.2mb 43f
2:24 10 13 mph 1026.1mb 43f
2:18 11 13 mph 1026.1mb 43f
2:12 11 13 mph 1026.1mb 43f
2:06 9 10 mph 1026.1mb 44f
2:00 9 10 mph 1026mb 44f
1:54 8 9 mph 1026mb 44f
1:48 7 8 mph 1025.9mb 44f
1:42 6 7 mph 1025.9mb 44f
1:36 6 7 mph 1025.8mb 44f
1:30 6 7 mph 1025.8mb 43f
1:24 7 9 mph 1025.7mb 43f
1:18 8 9 mph 1025.6mb 43f
1:12 7 8 mph 1025.6mb 43f
1:06 7
mph
1025.5mb 43f
1:00 7 8 mph 1025.5mb 43f
12:54 6 7 mph 1025.5mb 43f
12:48 7 8 mph 1025.4mb 43f
12:42 8
mph
1025.4mb 43f
12:36 7
mph
1025.4mb 43f
12:30 6 7 mph 1025.5mb 42f
12:24 6 8 mph 1025.5mb 42f
12:18 8 9 mph 1025.5mb 42f
12:12 8 10 mph 1025.5mb 42f
12:06 9 10 mph 1025.5mb 42f
12:00 8 9 mph 1025.5mb 42f
Qui 12/25 11:54 7 8 mph 1025.5mb 42f
11:48 7 8 mph 1025.5mb 41f
11:42 7 9 mph 1025.6mb 42f
11:36 8 9 mph 1025.6mb 42f
11:30 9 10 mph 1025.6mb 42f
11:24 9 10 mph 1025.6mb 42f
11:18 7 8 mph 1025.6mb 42f
11:12 6 7 mph 1025.7mb 43f
11:06 7 8 mph 1025.8mb 43f
11:00 6
mph
1025.8mb 43f
10:54 5 6 mph 1025.9mb 44f
10:48 5 6 mph 1025.9mb 44f
10:42 6
mph
1025.8mb 44f
10:36 3 5 mph 1025.8mb 44f
10:30 2
mph
1025.8mb 45f
10:24 2
mph
1025.7mb 45f
10:18  -  3 mph 1025.8mb 44f
10:12 2 3 mph 1025.8mb 45f
10:06 2 3 mph 1025.8mb 44f
10:00 3 5 mph 1025.7mb 45f
9:54 6
mph
1025.6mb 45f
9:48 2 5 mph 1025.6mb 45f
9:42 3 6 mph 1025.6mb 45f
9:36 2 5 mph 1025.6mb 45f
9:30 5
mph
1025.6mb 45f
9:24 3
mph
1025.4mb 45f
9:18 2 3 mph 1025.4mb 45f
9:12 3
mph
1025.3mb 45f
9:06  -  3 mph 1025.3mb 45f
9:00 1 6 mph 1025.3mb 46f
8:54 5 7 mph 1025.2mb 46f
8:48 5 7 mph 1025.1mb 46f
8:42 5 7 mph 1025.1mb 46f
8:36 6 7 mph 1025.1mb 46f
8:30 5 6 mph 1025.1mb 46f
8:24 5 6 mph 1025.1mb 46f
8:18  -  2 mph 1025.1mb 46f
8:12 2 3 mph 1025.1mb 46f
8:06 1 6 mph 1025.2mb 46f
8:00 6 7 mph 1025.2mb 46f
7:48 1 5 mph 1025mb 46f
7:42 5 6 mph 1024.9mb 46f
7:36 2 5 mph 1024.8mb 46f
7:30 3 5 mph 1024.8mb 46f
7:24 3 6 mph 1024.8mb 46f
7:18 5 6 mph 1024.8mb 46f
7:12 5 6 mph 1024.7mb 47f
7:06 5 6 mph 1024.7mb 46f
7:00 3
mph
1024.7mb 46f
6:54 2 3 mph 1024.7mb 46f
6:48  -  2 mph 1024.8mb 46f
6:42  -  1 mph 1024.8mb 46f
6:36 1 2 mph 1024.9mb 46f
6:30 2 5 mph 1024.9mb 46f
6:24 5 6 mph 1024.9mb 46f
6:18 2 3 mph 1024.8mb 46f
6:12 2 3 mph 1024.7mb 46f
6:06 2 3 mph 1024.7mb 47f
6:00 1 2 mph 1024.7mb 47f
5:54 2 3 mph 1024.7mb 47f
5:48 2 6 mph 1024.7mb 47f
5:42 3 5 mph 1024.6mb 47f
5:36 6
mph
1024.6mb 47f
5:30 6 7 mph 1024.6mb 47f
5:24 5 6 mph 1024.5mb 47f
5:18 5
mph
1024.6mb 47f
5:12 2 3 mph 1024.5mb 47f
5:06 2 3 mph 1024.5mb 47f